Portada
METAR-TAF:

METAR-TAF

Aeroports :

Illinois Valley Regional Airport (Walter A. Duncan Field)

Peru-LaSalle, Illinois, Estats Units d'Amèrica

latitud: 41-21-07N, longitud: 089-09-11W, altitud: 199 m

Observació

L'informe es va fer fa 38 minuts, a les 12:35 UTC
Vent calma
Temperatura 1°C
Humitat 93%
Pressió 1007 hPa
Visibilitat: 6.4 km
Cel ennuvolat a una alçada de 4700 ft
Cel ennuvolat a una alçada de 6000 ft
Cel cobert a una alçada de 7500 ft
boirina

METAR: KVYS 191235Z AUTO 00000KT 4SM BR BKN047 BKN060 OVC075 01/00 A2974 RMK AO2 T00051001

Hora: 07:13 (13:13 UTC)


TAF: manca

Observacions i pronòstics meteorològics de més de 4000 aeroports (METAR i TAF).

Les estacions disponibles són els punts grocs i vermells al mapa.

Posi el ratolí al punt desitjat per veure el nom de l'estació.

Feu clic per veure les observacions i els pronòstics meteorològics.

Per canviar el mapa: feu clic els botons verds amb una creu de color negre per apropar; al botó verd amb un guió per allunyar la imatge; o en les fletxes verdes per a mapes adjacents.


METAR-TAF: